Time;durP1;ratioP1;P1;durP2;ratioP2;P2;SDS_P1;SDS_P2;PMS_P1;PMS_P2;Temp;Humidity;BMP_temperature;BMP_pressure;BME280_temperature;BME280_humidity;BME280_pressure;Samples;Min_cycle;Max_cycle;Signal;HPM_P1;HPM_P2
2023/12/03 00:01:51;;;;;;;25.58;12.48;;;-0.80;99.90;;;;;;6205328;23;20047;-52
2023/12/03 00:04:17;;;;;;;30.00;12.88;;;-0.80;99.90;;;;;;6206022;23;20005;-56
2023/12/03 00:06:43;;;;;;;25.13;12.23;;;-0.80;99.90;;;;;;6205000;23;20499;-56
2023/12/03 00:09:09;;;;;;;27.92;12.43;;;-0.80;99.90;;;;;;6204604;23;20031;-54
2023/12/03 00:11:34;;;;;;;36.42;15.32;;;-0.80;99.90;;;;;;6205272;23;20008;-57
2023/12/03 00:14:00;;;;;;;39.22;16.17;;;-0.80;99.90;;;;;;6206094;23;20097;-56
2023/12/03 00:16:25;;;;;;;42.78;15.43;;;-0.80;99.90;;;;;;6206267;23;20400;-56
2023/12/03 00:18:51;;;;;;;23.77;11.63;;;-0.80;99.90;;;;;;6206203;23;20032;-56
2023/12/03 00:21:17;;;;;;;30.20;11.95;;;-0.80;99.90;;;;;;6207703;23;20012;-54
2023/12/03 00:23:42;;;;;;;24.63;11.70;;;-0.70;99.90;;;;;;6180145;23;20008;-56
2023/12/03 00:26:08;;;;;;;24.40;11.52;;;-0.80;99.90;;;;;;6206952;23;20013;-56
2023/12/03 00:28:33;;;;;;;29.48;12.30;;;-0.80;99.90;;;;;;6206597;23;20005;-56
2023/12/03 00:30:59;;;;;;;24.30;12.23;;;-0.80;99.90;;;;;;6206408;23;20005;-58
2023/12/03 00:33:25;;;;;;;29.55;12.75;;;-0.80;99.90;;;;;;6206896;23;20004;-56
2023/12/03 00:35:50;;;;;;;24.83;12.05;;;-0.80;99.90;;;;;;6205325;23;20048;-57
2023/12/03 00:38:16;;;;;;;25.67;12.38;;;-0.80;99.90;;;;;;6206790;23;20438;-54
2023/12/03 00:40:41;;;;;;;29.35;13.52;;;-0.90;99.90;;;;;;6206584;23;20401;-55
2023/12/03 00:43:07;;;;;;;25.33;10.88;;;-0.90;99.90;;;;;;6207343;23;20008;-56
2023/12/03 00:45:33;;;;;;;23.38;10.70;;;-0.90;99.90;;;;;;6206698;23;20005;-53
2023/12/03 00:47:59;;;;;;;22.75;11.80;;;-0.90;99.90;;;;;;6206909;23;20263;-53
2023/12/03 00:50:24;;;;;;;31.33;12.65;;;-1.00;99.90;;;;;;6207018;22;20041;-57
2023/12/03 00:52:50;;;;;;;26.33;12.35;;;-1.00;99.90;;;;;;6182769;22;20016;-53
2023/12/03 00:55:15;;;;;;;29.95;12.77;;;-1.00;99.90;;;;;;6207165;23;20008;-56
2023/12/03 00:57:41;;;;;;;31.95;14.85;;;-1.00;99.90;;;;;;6206917;23;20085;-57
2023/12/03 01:00:08;;;;;;;30.23;14.13;;;-1.00;99.90;;;;;;6206521;23;20012;-56
2023/12/03 01:02:34;;;;;;;33.72;15.02;;;-1.00;99.90;;;;;;6207637;22;20005;-55
2023/12/03 01:04:59;;;;;;;30.35;13.70;;;-1.10;99.90;;;;;;6206795;23;20004;-58
2023/12/03 01:07:25;;;;;;;31.15;14.10;;;-1.00;99.90;;;;;;6179974;23;20004;-54
2023/12/03 01:09:51;;;;;;;24.15;11.82;;;-1.00;99.90;;;;;;6205509;23;19997;-57
2023/12/03 01:12:16;;;;;;;35.05;13.93;;;-1.10;99.90;;;;;;6206961;23;20050;-55
2023/12/03 01:14:42;;;;;;;31.20;13.40;;;-1.00;99.90;;;;;;6206440;23;20017;-55
2023/12/03 01:17:07;;;;;;;28.52;12.70;;;-1.00;99.90;;;;;;6206867;23;20005;-55
2023/12/03 01:19:33;;;;;;;31.95;13.75;;;-1.00;99.90;;;;;;6206472;23;20080;-53
2023/12/03 01:21:58;;;;;;;24.67;11.80;;;-1.00;99.90;;;;;;6205561;23;20014;-57
2023/12/03 01:24:24;;;;;;;26.88;13.65;;;-1.00;99.90;;;;;;6206638;23;20344;-56
2023/12/03 01:26:50;;;;;;;26.20;11.38;;;-1.00;99.90;;;;;;6205188;23;20008;-56
2023/12/03 01:29:15;;;;;;;26.15;12.10;;;-0.90;99.90;;;;;;6206179;23;20475;-58
2023/12/03 01:31:41;;;;;;;24.48;11.80;;;-0.90;99.90;;;;;;6207412;23;20001;-56
2023/12/03 01:34:06;;;;;;;24.58;12.00;;;-0.80;99.90;;;;;;6206516;23;20593;-57
2023/12/03 01:36:32;;;;;;;32.63;13.25;;;-0.90;99.90;;;;;;6206227;23;20340;-55
2023/12/03 01:38:58;;;;;;;25.95;11.45;;;-0.90;99.90;;;;;;6206292;23;20005;-53
2023/12/03 01:41:23;;;;;;;28.98;12.82;;;-0.90;99.90;;;;;;6206687;23;20062;-51
2023/12/03 01:43:50;;;;;;;27.08;12.88;;;-0.80;99.90;;;;;;6166165;22;20005;-54
2023/12/03 01:46:17;;;;;;;30.85;14.35;;;-0.80;99.90;;;;;;6206419;23;20009;-55
2023/12/03 01:48:44;;;;;;;31.92;14.88;;;-0.70;99.90;;;;;;6205948;23;20001;-57
2023/12/03 01:51:10;;;;;;;30.20;13.90;;;-0.70;99.90;;;;;;6203611;23;20062;-57
2023/12/03 01:53:41;;;;;;;29.10;13.90;;;-0.70;99.90;;;;;;6205481;23;20000;-54
2023/12/03 01:56:07;;;;;;;29.65;13.50;;;-0.70;99.90;;;;;;6206738;23;20031;-58
2023/12/03 01:58:33;;;;;;;33.63;13.65;;;-0.70;99.90;;;;;;6179543;22;20109;-53
2023/12/03 02:00:59;;;;;;;41.83;14.05;;;-0.60;99.90;;;;;;6206211;23;20004;-55
2023/12/03 02:03:24;;;;;;;25.30;11.48;;;-0.60;99.90;;;;;;6206550;23;20028;-57
2023/12/03 02:06:16;;;;;;;27.20;13.00;;;-0.60;99.90;;;;;;6204890;23;20000;-54
2023/12/03 02:08:42;;;;;;;25.83;11.35;;;-0.60;99.90;;;;;;6207834;22;20016;-57
2023/12/03 02:11:08;;;;;;;28.13;11.85;;;-0.60;99.90;;;;;;6206652;23;20656;-53
2023/12/03 02:13:36;;;;;;;26.45;12.07;;;-0.60;99.90;;;;;;6206439;22;20009;-54
2023/12/03 02:16:02;;;;;;;23.05;10.73;;;-0.60;99.90;;;;;;6206970;23;20138;-54
2023/12/03 02:18:28;;;;;;;23.38;10.90;;;-0.50;99.90;;;;;;6206619;22;20386;-58
2023/12/03 02:20:55;;;;;;;24.10;10.63;;;-0.50;99.90;;;;;;6206125;23;20008;-55
2023/12/03 02:23:21;;;;;;;22.60;11.18;;;-0.50;99.90;;;;;;6205949;23;20370;-52
2023/12/03 02:25:50;;;;;;;30.65;10.90;;;-0.50;99.90;;;;;;6207049;23;20453;-53
2023/12/03 02:28:16;;;;;;;25.92;10.13;;;-0.50;99.90;;;;;;6207211;23;20459;-59
2023/12/03 02:30:42;;;;;;;26.55;10.80;;;-0.50;99.90;;;;;;6206441;23;20417;-55
2023/12/03 02:33:08;;;;;;;23.17;9.70;;;-0.40;99.90;;;;;;6206805;23;20000;-54
2023/12/03 02:35:33;;;;;;;22.90;10.65;;;-0.40;99.90;;;;;;6205799;23;20122;-54
2023/12/03 02:37:59;;;;;;;20.45;8.65;;;-0.40;99.90;;;;;;6206311;22;20318;-53
2023/12/03 02:40:24;;;;;;;21.95;10.18;;;-0.40;99.90;;;;;;6205897;23;20005;-56
2023/12/03 02:42:50;;;;;;;22.25;10.70;;;-0.30;99.90;;;;;;6206615;23;20076;-57
2023/12/03 02:45:17;;;;;;;23.92;10.18;;;-0.30;99.90;;;;;;6206802;23;20005;-54
2023/12/03 02:47:42;;;;;;;21.30;9.93;;;-0.40;99.90;;;;;;6206455;22;20008;-54
2023/12/03 02:50:08;;;;;;;23.73;10.82;;;-0.40;99.90;;;;;;6206431;23;20008;-59
2023/12/03 02:52:34;;;;;;;23.27;11.70;;;-0.40;99.90;;;;;;6182343;23;20023;-55
2023/12/03 02:54:59;;;;;;;21.92;10.43;;;-0.40;99.90;;;;;;6206655;23;20004;-55
2023/12/03 02:57:25;;;;;;;21.67;10.57;;;-0.40;99.90;;;;;;6206548;23;20004;-56
2023/12/03 02:59:50;;;;;;;18.60;8.65;;;-0.50;99.90;;;;;;6206007;23;20004;-53
2023/12/03 03:02:16;;;;;;;24.20;11.25;;;-0.50;99.90;;;;;;6206640;23;20000;-52
2023/12/03 03:04:42;;;;;;;22.05;10.20;;;-0.50;99.90;;;;;;6179376;23;20005;-57
2023/12/03 03:07:07;;;;;;;27.05;11.93;;;-0.50;99.90;;;;;;6206481;23;20055;-56
2023/12/03 03:09:33;;;;;;;22.85;10.43;;;-0.50;99.90;;;;;;6205979;23;19997;-55
2023/12/03 03:11:58;;;;;;;25.77;11.05;;;-0.50;99.90;;;;;;6207066;23;20005;-54
2023/12/03 03:14:24;;;;;;;20.98;9.25;;;-0.50;99.90;;;;;;6205694;23;20054;-54
2023/12/03 03:16:50;;;;;;;23.08;10.52;;;-0.50;99.90;;;;;;6206173;23;20000;-54
2023/12/03 03:19:16;;;;;;;24.35;11.90;;;-0.50;99.90;;;;;;6206472;23;20102;-57
2023/12/03 03:21:41;;;;;;;23.30;10.32;;;-0.50;99.90;;;;;;6206523;23;20462;-55
2023/12/03 03:24:07;;;;;;;20.85;9.65;;;-0.50;99.90;;;;;;6206274;23;20005;-57
2023/12/03 03:26:33;;;;;;;22.20;9.05;;;-0.50;99.90;;;;;;6179979;23;20005;-55
2023/12/03 03:28:59;;;;;;;23.30;11.45;;;-0.50;99.90;;;;;;6204685;23;20015;-56
2023/12/03 03:31:24;;;;;;;21.98;10.60;;;-0.50;99.90;;;;;;6206670;23;20053;-57
2023/12/03 03:33:50;;;;;;;22.27;9.65;;;-0.50;99.90;;;;;;6206352;23;20028;-56
2023/12/03 03:36:16;;;;;;;19.80;9.75;;;-0.50;99.90;;;;;;6206496;23;20031;-54
2023/12/03 03:38:43;;;;;;;23.73;10.00;;;-0.50;99.90;;;;;;6206166;23;20005;-60
2023/12/03 03:41:09;;;;;;;22.77;10.52;;;-0.50;99.90;;;;;;6206366;23;20027;-57
2023/12/03 03:43:35;;;;;;;21.50;10.00;;;-0.40;99.90;;;;;;6205575;23;20339;-54
2023/12/03 03:46:00;;;;;;;21.67;10.45;;;-0.40;99.90;;;;;;6206204;23;20447;-56
2023/12/03 03:48:26;;;;;;;21.92;9.32;;;-0.50;99.90;;;;;;6206848;23;20028;-55
2023/12/03 03:50:52;;;;;;;19.02;9.30;;;-0.50;99.90;;;;;;6207099;23;19993;-55
2023/12/03 03:53:17;;;;;;;24.70;11.57;;;-0.50;99.90;;;;;;6172617;23;20044;-57
2023/12/03 03:55:43;;;;;;;18.17;9.07;;;-0.50;99.90;;;;;;6207067;23;20043;-53
2023/12/03 03:58:08;;;;;;;19.63;9.70;;;-0.50;99.90;;;;;;6207477;23;20566;-52
2023/12/03 04:00:34;;;;;;;18.73;9.27;;;-0.50;99.90;;;;;;6180608;23;20008;-54
2023/12/03 04:03:00;;;;;;;18.75;8.60;;;-0.50;99.90;;;;;;6207397;23;20011;-56
2023/12/03 04:05:25;;;;;;;19.70;8.68;;;-0.50;99.90;;;;;;6207593;23;20001;-56
2023/12/03 04:07:51;;;;;;;24.73;9.70;;;-0.40;99.90;;;;;;6207644;23;20515;-55
2023/12/03 04:10:17;;;;;;;19.65;9.45;;;-0.40;99.90;;;;;;6207288;23;20001;-61
2023/12/03 04:12:43;;;;;;;20.10;9.20;;;-0.40;99.90;;;;;;6205759;23;20026;-56
2023/12/03 04:15:09;;;;;;;22.05;10.05;;;-0.40;99.90;;;;;;6205433;23;20013;-55
2023/12/03 04:17:35;;;;;;;24.15;9.40;;;-0.40;99.90;;;;;;6206924;23;20005;-55
2023/12/03 04:20:00;;;;;;;20.25;8.75;;;-0.40;99.90;;;;;;6206388;23;20012;-55
2023/12/03 04:22:26;;;;;;;21.27;8.88;;;-0.40;99.90;;;;;;6207110;23;20009;-55
2023/12/03 04:24:51;;;;;;;22.77;10.55;;;-0.40;99.90;;;;;;6207112;23;20442;-59
2023/12/03 04:27:17;;;;;;;17.25;8.18;;;-0.40;99.90;;;;;;6206903;23;20043;-56
2023/12/03 04:29:43;;;;;;;23.55;8.32;;;-0.40;99.90;;;;;;6207090;23;19997;-55
2023/12/03 04:32:09;;;;;;;19.60;8.45;;;-0.50;99.90;;;;;;6180972;23;20001;-57
2023/12/03 04:34:34;;;;;;;18.70;9.27;;;-0.50;99.90;;;;;;6206383;23;20059;-54
2023/12/03 04:37:00;;;;;;;18.42;9.50;;;-0.60;99.90;;;;;;6207097;23;20005;-52
2023/12/03 04:39:26;;;;;;;20.98;9.38;;;-0.80;99.90;;;;;;6206807;23;20432;-53
2023/12/03 04:41:52;;;;;;;20.15;8.95;;;-0.90;99.90;;;;;;6207828;23;20013;-53
2023/12/03 04:44:17;;;;;;;22.20;9.95;;;-1.10;99.90;;;;;;6207223;23;20009;-57
2023/12/03 04:46:43;;;;;;;20.75;9.50;;;-1.10;99.90;;;;;;6207181;23;20080;-56
2023/12/03 04:49:09;;;;;;;20.60;9.55;;;-1.20;99.90;;;;;;6204731;23;20057;-54
2023/12/03 04:51:34;;;;;;;23.77;9.88;;;-1.20;99.90;;;;;;6184579;22;20003;-55
2023/12/03 04:54:00;;;;;;;25.27;10.82;;;-1.20;99.90;;;;;;6206840;23;20053;-54
2023/12/03 04:56:26;;;;;;;25.00;9.63;;;-1.20;99.90;;;;;;6207332;23;20007;-53
2023/12/03 04:58:51;;;;;;;27.80;11.20;;;-1.20;99.90;;;;;;6206535;23;20035;-56
2023/12/03 05:01:18;;;;;;;21.63;10.20;;;-1.10;99.90;;;;;;6206998;23;20012;-57
2023/12/03 05:03:45;;;;;;;20.08;9.48;;;-1.10;99.90;;;;;;6206441;23;20447;-52
2023/12/03 05:06:10;;;;;;;22.20;10.52;;;-1.10;99.90;;;;;;6206883;23;20005;-56
2023/12/03 05:08:36;;;;;;;19.55;8.90;;;-1.00;99.90;;;;;;6207175;23;20055;-56
2023/12/03 05:11:05;;;;;;;22.52;9.18;;;-1.00;99.90;;;;;;6206948;23;20332;-54
2023/12/03 05:13:34;;;;;;;18.92;9.05;;;-1.00;99.90;;;;;;6206602;23;20039;-57
2023/12/03 05:16:04;;;;;;;19.35;9.70;;;-0.90;99.90;;;;;;6206347;23;20349;-56
2023/12/03 05:18:30;;;;;;;16.50;7.22;;;-0.90;99.90;;;;;;6207336;22;20107;-56
2023/12/03 05:20:57;;;;;;;21.27;8.43;;;-0.90;99.90;;;;;;6206541;23;20004;-54
2023/12/03 05:23:23;;;;;;;20.35;9.20;;;-0.90;99.90;;;;;;6206963;23;20012;-58
2023/12/03 05:25:48;;;;;;;16.20;7.80;;;-0.90;99.90;;;;;;6206800;23;20443;-54
2023/12/03 05:28:14;;;;;;;21.92;9.18;;;-0.90;99.90;;;;;;6206766;23;20076;-57
2023/12/03 05:30:40;;;;;;;21.35;9.63;;;-0.90;99.90;;;;;;6206456;23;20067;-54
2023/12/03 05:33:05;;;;;;;24.20;9.30;;;-0.90;99.90;;;;;;6206711;23;19997;-53
2023/12/03 05:35:31;;;;;;;20.23;9.60;;;-0.90;99.90;;;;;;6206629;23;20011;-53
2023/12/03 05:37:56;;;;;;;17.17;8.35;;;-0.90;99.90;;;;;;6206484;23;20001;-53
2023/12/03 05:40:22;;;;;;;21.83;9.18;;;-0.90;99.90;;;;;;6206464;23;20443;-56
2023/12/03 05:42:48;;;;;;;23.05;9.10;;;-0.80;99.90;;;;;;6207250;23;20005;-56
2023/12/03 05:45:14;;;;;;;21.00;8.43;;;-0.80;99.90;;;;;;6206883;23;20009;-55
2023/12/03 05:47:40;;;;;;;16.67;7.55;;;-0.80;99.90;;;;;;6207007;23;20395;-53
2023/12/03 05:50:06;;;;;;;18.83;7.90;;;-0.80;99.90;;;;;;6206573;23;20515;-56
2023/12/03 05:52:32;;;;;;;16.85;8.63;;;-0.80;99.90;;;;;;6186461;23;20521;-55
2023/12/03 05:54:57;;;;;;;19.08;8.65;;;-0.80;99.90;;;;;;6206037;23;20001;-55
2023/12/03 05:57:23;;;;;;;19.35;8.90;;;-0.80;99.90;;;;;;6207141;23;20607;-55
2023/12/03 05:59:50;;;;;;;17.42;8.02;;;-0.80;99.90;;;;;;6206800;23;20061;-56
2023/12/03 06:02:16;;;;;;;15.70;7.93;;;-0.80;99.90;;;;;;6207235;23;20011;-57
2023/12/03 06:04:42;;;;;;;18.50;8.98;;;-0.80;99.90;;;;;;6206599;23;20004;-53
2023/12/03 06:07:07;;;;;;;19.35;7.90;;;-0.80;99.90;;;;;;6206621;23;20476;-57
2023/12/03 06:09:33;;;;;;;19.05;9.43;;;-0.80;99.90;;;;;;6206416;23;20039;-56
2023/12/03 06:11:59;;;;;;;16.67;7.28;;;-0.80;99.90;;;;;;6206066;23;20091;-55
2023/12/03 06:14:25;;;;;;;20.73;8.32;;;-0.80;99.90;;;;;;6206789;23;20004;-56
2023/12/03 06:16:51;;;;;;;22.05;9.60;;;-0.80;99.90;;;;;;6206747;23;20033;-52
2023/12/03 06:19:17;;;;;;;18.15;8.57;;;-0.80;99.90;;;;;;6206339;23;20484;-55
2023/12/03 06:21:42;;;;;;;20.35;8.48;;;-0.80;99.90;;;;;;6207035;23;20012;-57
2023/12/03 06:24:08;;;;;;;19.15;8.82;;;-0.80;99.90;;;;;;6206403;23;20439;-55
2023/12/03 06:26:34;;;;;;;15.57;7.57;;;-0.80;99.90;;;;;;6206757;23;20004;-53
2023/12/03 06:29:00;;;;;;;21.58;8.25;;;-0.80;99.90;;;;;;6206350;23;20001;-56
2023/12/03 06:31:25;;;;;;;18.73;8.43;;;-0.80;99.90;;;;;;6206968;23;20004;-58
2023/12/03 06:33:51;;;;;;;26.88;9.82;;;-0.80;99.90;;;;;;6206528;23;19997;-55
2023/12/03 06:36:16;;;;;;;34.40;14.57;;;-0.80;99.90;;;;;;6205888;23;20001;-56
2023/12/03 06:38:42;;;;;;;53.95;19.30;;;-0.80;99.90;;;;;;6206718;23;20012;-57
2023/12/03 06:41:07;;;;;;;28.13;13.45;;;-0.80;99.90;;;;;;6206575;23;20005;-57
2023/12/03 06:43:33;;;;;;;29.50;13.25;;;-0.70;99.90;;;;;;6206270;23;20012;-56
2023/12/03 06:45:59;;;;;;;24.15;10.68;;;-0.80;99.90;;;;;;6206405;23;20500;-55
2023/12/03 06:48:25;;;;;;;28.98;14.07;;;-0.70;99.90;;;;;;6206486;23;20007;-52
2023/12/03 06:50:50;;;;;;;29.23;13.63;;;-0.80;99.90;;;;;;6206292;23;20001;-54
2023/12/03 06:53:16;;;;;;;23.70;10.48;;;-0.80;99.90;;;;;;6185063;23;20024;-52
2023/12/03 06:55:42;;;;;;;18.63;9.18;;;-0.80;99.90;;;;;;6205780;22;20012;-53
2023/12/03 06:58:07;;;;;;;20.92;9.07;;;-0.80;99.90;;;;;;6206466;23;20108;-58
2023/12/03 07:00:33;;;;;;;17.60;8.85;;;-0.80;99.90;;;;;;6206341;23;20008;-55
2023/12/03 07:02:59;;;;;;;20.13;8.85;;;-0.80;99.90;;;;;;6207071;23;20009;-53
2023/12/03 07:05:25;;;;;;;19.65;9.07;;;-0.90;99.90;;;;;;6206601;23;20027;-56
2023/12/03 07:07:51;;;;;;;21.98;9.18;;;-0.90;99.90;;;;;;6206061;23;19997;-55
2023/12/03 07:10:17;;;;;;;22.95;9.68;;;-0.90;99.90;;;;;;6205875;23;20081;-56
2023/12/03 07:12:43;;;;;;;19.90;9.27;;;-0.90;99.90;;;;;;6206856;23;20004;-54
2023/12/03 07:15:09;;;;;;;37.85;14.40;;;-0.90;99.90;;;;;;6206354;23;20517;-56
2023/12/03 07:17:34;;;;;;;46.35;16.92;;;-0.90;99.90;;;;;;6206633;23;20024;-56
2023/12/03 07:20:00;;;;;;;34.45;14.65;;;-0.90;99.90;;;;;;6178688;23;20000;-55
2023/12/03 07:22:26;;;;;;;26.00;10.65;;;-0.90;99.90;;;;;;6206605;23;20004;-59
2023/12/03 07:24:53;;;;;;;49.10;17.67;;;-0.80;99.90;;;;;;6206592;23;20429;-55
2023/12/03 07:27:18;;;;;;;28.08;10.68;;;-0.90;99.90;;;;;;6205882;23;20455;-55
2023/12/03 07:29:45;;;;;;;29.42;10.88;;;-0.80;99.90;;;;;;6178540;23;20005;-58
2023/12/03 07:32:10;;;;;;;23.95;10.32;;;-0.80;99.90;;;;;;6206264;23;20008;-56
2023/12/03 07:34:36;;;;;;;22.70;9.77;;;-0.80;99.90;;;;;;6179942;23;20004;-55
2023/12/03 07:37:05;;;;;;;21.23;9.48;;;-0.80;99.90;;;;;;6206024;23;20088;-54
2023/12/03 07:39:30;;;;;;;24.02;10.32;;;-0.80;99.90;;;;;;6180576;23;20008;-56
2023/12/03 07:41:56;;;;;;;27.77;10.20;;;-0.70;99.90;;;;;;6206372;23;20035;-54
2023/12/03 07:44:22;;;;;;;26.33;9.88;;;-0.70;99.90;;;;;;6205872;23;20499;-55
2023/12/03 07:46:51;;;;;;;23.90;8.68;;;-0.70;99.90;;;;;;6206503;23;20009;-57
2023/12/03 07:49:17;;;;;;;23.27;9.70;;;-0.70;99.90;;;;;;6205723;23;20001;-58
2023/12/03 07:51:46;;;;;;;26.95;9.07;;;-0.70;99.90;;;;;;6206257;23;20008;-52
2023/12/03 07:54:12;;;;;;;19.20;7.88;;;-0.60;99.90;;;;;;6181509;23;20013;-57
2023/12/03 07:56:39;;;;;;;24.88;9.73;;;-0.70;99.90;;;;;;6205814;23;20008;-56
2023/12/03 07:59:04;;;;;;;21.95;10.30;;;-0.70;99.90;;;;;;6205684;23;20009;-53
2023/12/03 08:01:30;;;;;;;21.95;10.20;;;-0.70;99.90;;;;;;6179567;23;20008;-56
2023/12/03 08:03:57;;;;;;;18.48;8.38;;;-0.70;99.90;;;;;;6193987;22;20013;-61
2023/12/03 08:06:23;;;;;;;22.02;9.05;;;-0.70;99.90;;;;;;6179462;23;20016;-57
2023/12/03 08:08:49;;;;;;;23.67;9.27;;;-0.80;99.90;;;;;;6207530;23;20075;-56
2023/12/03 08:11:15;;;;;;;21.42;9.35;;;-0.80;99.90;;;;;;6181432;23;20001;-57
2023/12/03 08:13:40;;;;;;;20.55;9.00;;;-0.80;99.90;;;;;;6208196;23;20016;-62
2023/12/03 08:16:07;;;;;;;19.92;9.15;;;-0.80;99.90;;;;;;6207629;23;20008;-57
2023/12/03 08:18:32;;;;;;;20.88;9.93;;;-0.60;99.90;;;;;;6207937;23;20057;-56
2023/12/03 08:20:59;;;;;;;25.23;10.23;;;-0.50;99.90;;;;;;6206776;23;20425;-54
2023/12/03 08:23:26;;;;;;;22.67;9.88;;;-0.40;99.90;;;;;;6207924;23;20009;-55
2023/12/03 08:25:52;;;;;;;22.48;9.25;;;-0.30;99.90;;;;;;6207424;23;20008;-55
2023/12/03 08:28:17;;;;;;;23.85;9.73;;;-0.20;99.90;;;;;;6207217;22;20421;-57
2023/12/03 08:30:43;;;;;;;22.73;9.00;;;-0.20;99.90;;;;;;6207550;23;20032;-59
2023/12/03 08:33:09;;;;;;;20.88;9.82;;;-0.20;99.90;;;;;;6207157;23;20037;-54
2023/12/03 08:35:34;;;;;;;21.20;9.02;;;-0.20;99.90;;;;;;6207125;23;20067;-54
2023/12/03 08:38:00;;;;;;;16.95;8.82;;;-0.40;99.90;;;;;;6206562;23;20546;-60
2023/12/03 08:40:26;;;;;;;20.48;10.13;;;-0.50;99.90;;;;;;6206804;23;20374;-60
2023/12/03 08:42:51;;;;;;;23.10;9.73;;;-0.60;99.90;;;;;;6207955;23;20340;-58
2023/12/03 08:45:17;;;;;;;22.33;10.10;;;-0.60;99.90;;;;;;6205824;23;20079;-55
2023/12/03 08:47:43;;;;;;;24.65;10.23;;;-0.70;99.90;;;;;;6207286;23;20001;-59
2023/12/03 08:50:08;;;;;;;21.35;9.45;;;-0.70;99.90;;;;;;6207367;23;20009;-62
2023/12/03 08:52:34;;;;;;;18.65;8.85;;;-0.80;99.90;;;;;;6207897;23;20008;-62
2023/12/03 08:55:00;;;;;;;23.00;9.13;;;-0.70;99.90;;;;;;6209560;22;20008;-56
2023/12/03 08:57:26;;;;;;;23.02;10.25;;;-0.70;99.90;;;;;;6180635;23;20004;-58
2023/12/03 08:59:55;;;;;;;24.23;10.98;;;-0.60;99.90;;;;;;6207800;23;20015;-56
2023/12/03 09:02:21;;;;;;;24.60;10.43;;;-0.50;99.90;;;;;;6207183;22;20108;-57
2023/12/03 09:04:47;;;;;;;22.02;9.07;;;-0.40;99.90;;;;;;6206423;23;20047;-61
2023/12/03 09:07:13;;;;;;;25.27;9.30;;;-0.30;99.90;;;;;;6207530;23;20317;-54
2023/12/03 09:09:42;;;;;;;20.75;10.43;;;-0.30;99.90;;;;;;6205289;23;20341;-57
2023/12/03 09:12:08;;;;;;;20.13;9.27;;;-0.20;99.90;;;;;;6206665;23;20053;-64
2023/12/03 09:14:34;;;;;;;22.17;9.52;;;-0.10;99.90;;;;;;6205914;23;20040;-53
2023/12/03 09:17:00;;;;;;;23.40;9.73;;;-0.10;99.90;;;;;;6207204;23;20061;-61
2023/12/03 09:19:25;;;;;;;21.33;9.15;;;0.00;99.90;;;;;;6206797;23;20004;-64
2023/12/03 09:21:51;;;;;;;25.17;9.23;;;0.00;99.90;;;;;;6207422;23;20334;-59
2023/12/03 09:24:17;;;;;;;18.70;8.30;;;0.00;99.90;;;;;;6207604;23;20005;-60
2023/12/03 09:26:46;;;;;;;20.42;7.88;;;-0.10;99.90;;;;;;6207530;23;20451;-62
2023/12/03 09:29:13;;;;;;;20.17;8.63;;;-0.10;99.90;;;;;;6206187;23;20001;-62
2023/12/03 09:31:41;;;;;;;19.38;8.63;;;0.00;99.90;;;;;;6207168;23;20428;-51
2023/12/03 09:34:07;;;;;;;16.90;7.78;;;0.00;99.90;;;;;;6206881;23;20004;-49
2023/12/03 09:36:34;;;;;;;20.45;8.90;;;-0.10;99.90;;;;;;6207778;23;20047;-48
2023/12/03 09:39:00;;;;;;;18.95;8.18;;;-0.10;99.90;;;;;;6205780;23;20008;-51
2023/12/03 09:41:28;;;;;;;19.80;8.88;;;-0.10;99.90;;;;;;6205181;23;20425;-54
2023/12/03 09:43:59;;;;;;;23.33;8.82;;;0.00;99.90;;;;;;6206189;23;20001;-49
2023/12/03 09:46:32;;;;;;;26.17;8.52;;;0.00;99.90;;;;;;6205429;23;20455;-50
2023/12/03 09:49:00;;;;;;;23.03;9.47;;;0.00;99.90;;;;;;6208477;23;20011;-47
2023/12/03 09:51:27;;;;;;;25.33;10.32;;;0.10;99.90;;;;;;6208192;23;20225;-54
2023/12/03 09:53:57;;;;;;;18.92;8.25;;;0.10;99.90;;;;;;6208422;23;20005;-54
2023/12/03 09:56:24;;;;;;;37.25;13.57;;;0.10;99.90;;;;;;6188411;23;20020;-52
2023/12/03 09:58:51;;;;;;;22.92;10.13;;;0.10;99.90;;;;;;6208311;23;20489;-54
2023/12/03 10:01:17;;;;;;;20.10;8.55;;;0.10;99.90;;;;;;6208464;23;20447;-49
2023/12/03 10:03:42;;;;;;;23.25;9.68;;;0.20;99.90;;;;;;6207299;23;20017;-51
2023/12/03 10:06:12;;;;;;;19.27;9.18;;;0.20;99.90;;;;;;6207451;23;20385;-48
2023/12/03 10:08:41;;;;;;;22.77;8.98;;;0.20;99.90;;;;;;6208674;23;20393;-52
2023/12/03 10:11:10;;;;;;;20.70;9.13;;;0.10;99.90;;;;;;6208919;23;20455;-48
2023/12/03 10:13:36;;;;;;;20.85;8.65;;;0.00;99.90;;;;;;6182047;23;20000;-54
2023/12/03 10:16:02;;;;;;;19.50;8.38;;;0.10;99.90;;;;;;6208024;22;20119;-49
2023/12/03 10:18:28;;;;;;;22.08;8.43;;;0.10;99.90;;;;;;6207895;23;20032;-54
2023/12/03 10:21:07;;;;;;;19.73;9.00;;;0.10;99.90;;;;;;6207417;23;20020;-49
2023/12/03 10:23:34;;;;;;;23.27;9.98;;;0.10;99.90;;;;;;6181679;23;20018;-56
2023/12/03 10:26:10;;;;;;;19.35;8.95;;;0.10;99.90;;;;;;6181454;23;20009;-47
2023/12/03 10:28:36;;;;;;;28.85;11.80;;;0.10;99.90;;;;;;6181271;22;20080;-47
2023/12/03 10:31:02;;;;;;;21.20;10.02;;;0.10;99.90;;;;;;6207839;22;20384;-48
2023/12/03 10:33:27;;;;;;;22.30;9.65;;;0.20;99.90;;;;;;6207718;23;20050;-54
2023/12/03 10:36:02;;;;;;;21.77;9.45;;;0.20;99.90;;;;;;6207814;23;20008;-51
2023/12/03 10:38:43;;;;;;;30.13;11.35;;;0.20;99.90;;;;;;6208300;22;20005;-50
2023/12/03 10:41:13;;;;;;;19.20;9.18;;;0.20;99.90;;;;;;6207218;23;20009;-50
2023/12/03 10:43:40;;;;;;;21.77;10.40;;;0.30;99.90;;;;;;6208138;22;20016;-50
2023/12/03 10:46:10;;;;;;;22.55;10.50;;;0.40;99.90;;;;;;6207397;23;20050;-50
2023/12/03 10:48:36;;;;;;;24.42;10.05;;;0.40;99.90;;;;;;6208184;22;20001;-48
2023/12/03 10:51:05;;;;;;;18.63;8.80;;;0.30;99.90;;;;;;6207554;23;20039;-52
2023/12/03 10:53:35;;;;;;;23.40;8.75;;;0.40;99.90;;;;;;6182264;22;20015;-50
2023/12/03 10:56:03;;;;;;;21.48;8.60;;;0.40;99.90;;;;;;6207817;23;20091;-48
2023/12/03 10:58:30;;;;;;;22.02;8.98;;;0.40;99.90;;;;;;6208648;23;20033;-50
2023/12/03 11:01:15;;;;;;;20.38;9.73;;;0.40;99.90;;;;;;6207472;23;20337;-53
2023/12/03 11:03:46;;;;;;;17.95;9.35;;;0.40;99.90;;;;;;6208541;23;20016;-48
2023/12/03 11:06:14;;;;;;;22.52;8.85;;;0.40;99.90;;;;;;6208569;23;20483;-54
2023/12/03 11:08:40;;;;;;;17.73;7.80;;;0.50;99.90;;;;;;6208579;23;20025;-47
2023/12/03 11:11:08;;;;;;;21.60;7.45;;;0.60;99.90;;;;;;6208451;22;20028;-48
2023/12/03 11:13:35;;;;;;;21.73;8.65;;;0.70;99.90;;;;;;6208506;23;20076;-48
2023/12/03 11:16:02;;;;;;;19.65;8.13;;;0.70;99.90;;;;;;6208048;23;20011;-52
2023/12/03 11:18:29;;;;;;;19.17;8.15;;;0.80;99.90;;;;;;6207939;23;20008;-49
2023/12/03 11:21:10;;;;;;;19.08;8.10;;;0.90;99.90;;;;;;6207391;23;20087;-54
2023/12/03 11:24:08;;;;;;;24.75;8.23;;;1.00;99.90;;;;;;6207501;23;20012;-50
2023/12/03 11:26:34;;;;;;;19.05;7.63;;;1.00;99.90;;;;;;6207731;23;20084;-51
2023/12/03 11:28:59;;;;;;;18.05;7.50;;;1.00;99.90;;;;;;6207137;22;20035;-48
2023/12/03 11:31:25;;;;;;;17.63;7.50;;;0.90;99.90;;;;;;6207410;23;20001;-52
2023/12/03 11:33:58;;;;;;;14.45;6.70;;;0.90;99.90;;;;;;6180737;23;20001;-52
2023/12/03 11:36:42;;;;;;;14.15;6.60;;;0.80;99.90;;;;;;6207438;22;20011;-48
2023/12/03 11:39:08;;;;;;;13.05;7.07;;;0.80;99.90;;;;;;6206982;23;20328;-51
2023/12/03 11:41:42;;;;;;;21.42;8.65;;;0.80;99.90;;;;;;6207239;23;20103;-48
2023/12/03 11:44:26;;;;;;;17.27;7.82;;;0.90;99.90;;;;;;6207031;23;20008;-53
2023/12/03 11:47:08;;;;;;;;;;;0.90;99.90;;;;;;6207740;23;20088;-52
2023/12/03 11:49:36;;;;;;;16.17;7.47;;;0.90;99.90;;;;;;6206833;23;19906;-51
2023/12/03 11:52:03;;;;;;;17.73;7.35;;;0.90;99.90;;;;;;6207366;23;20000;-48
2023/12/03 11:54:37;;;;;;;18.92;7.32;;;0.90;99.90;;;;;;6207297;23;20027;-51
2023/12/03 11:57:02;;;;;;;;;;;0.80;99.90;;;;;;6152386;22;20017;-53
2023/12/03 11:59:28;;;;;;;16.50;6.70;;;0.80;99.90;;;;;;6206425;23;19904;-53
2023/12/03 12:01:53;;;;;;;19.27;6.85;;;0.80;99.90;;;;;;6207342;23;19993;-49
2023/12/03 12:04:20;;;;;;;23.23;7.68;;;0.80;99.90;;;;;;6206306;23;20020;-48
2023/12/03 12:06:46;;;;;;;18.35;7.78;;;0.70;99.90;;;;;;6205754;23;20012;-49
2023/12/03 12:09:14;;;;;;;19.90;7.85;;;0.70;99.90;;;;;;6207172;23;19997;-56
2023/12/03 12:11:40;;;;;;;21.25;8.88;;;0.80;99.90;;;;;;6208041;23;20011;-47
2023/12/03 12:14:06;;;;;;;19.42;8.40;;;0.80;99.90;;;;;;6207777;23;20001;-58
2023/12/03 12:16:32;;;;;;;28.23;9.38;;;0.90;99.90;;;;;;6207886;23;20420;-49
2023/12/03 12:18:58;;;;;;;22.50;9.07;;;0.80;99.90;;;;;;6207785;23;20395;-49
2023/12/03 12:21:24;;;;;;;20.00;9.13;;;0.80;99.90;;;;;;6207041;23;20007;-50
2023/12/03 12:23:49;;;;;;;20.90;8.48;;;0.90;99.90;;;;;;6207200;23;20016;-55
2023/12/03 12:26:15;;;;;;;26.92;10.05;;;0.80;99.90;;;;;;6207875;23;20009;-49
2023/12/03 12:28:41;;;;;;;20.92;8.65;;;0.80;99.90;;;;;;6181240;22;20001;-48
2023/12/03 12:31:08;;;;;;;20.80;8.63;;;0.80;99.90;;;;;;6207421;23;20198;-49
2023/12/03 12:33:35;;;;;;;23.95;9.35;;;0.80;99.90;;;;;;6207080;23;20005;-51